POGODA: Poland

Lotnisko: Szczecin-Goleniow

METAR KOD: EPSC


METAR: EPSC 252000Z 06004KT CAVOK 22/16 Q1015


BLOK
Pogoda METAR
252000Z
Dzien: 25, Godzina: 20:00 UTC.
06004KT
Wiatr z kierunku 060, o predkosci 7 km/h
CAVOK
Widzialnosc pow. 10 km, brak chmur pon. 1500 m., brak CB, brak opadow, burz i innych
22/16
Temperatura: powietrze 22°C, punkt rosy 16°C . Wilgotnosc wzgledna 73 %
Q1015
Cisnienie: 1015 hPa

Pogoda na innym lotnisku

Pogoda Gdansk-Rebiechowo WEATHER Poland  
Pogoda Katowice WEATHER Poland  
Pogoda Krakow WEATHER Poland  
Pogoda Poznan WEATHER Poland  
Pogoda Rzeszow-Jasionka WEATHER Poland  
Pogoda Szczecin WEATHER Poland  
Pogoda Warszawa-Okecie WEATHER Poland  
Pogoda Wroclaw Ii WEATHER Poland  

Pogoda w inny kraju

Strona startowa

(C) by GREGOR 2007
Ogłoszenia Towarzyskie